Time;durP1;ratioP1;P1;durP2;ratioP2;P2;SDS_P1;SDS_P2;PMS_P1;PMS_P2;Temp;Humidity;BMP_temperature;BMP_pressure;BME280_temperature;BME280_humidity;BME280_pressure;Samples;Min_cycle;Max_cycle;Signal;HPM_P1;HPM_P2
2022/07/04 00:01:29;;;;;;;3.65;1.67;;;23.60;73.80;;;23.80;88.92;100658.03;4971143;28;20528;-78
2022/07/04 00:03:57;;;;;;;2.60;1.42;;;23.60;74.10;;;23.89;87.58;100665.41;4966899;28;20059;-77
2022/07/04 00:06:25;;;;;;;4.05;1.50;;;23.50;74.40;;;23.91;87.11;100657.22;4970467;28;20042;-77
2022/07/04 00:08:52;;;;;;;2.65;1.10;;;23.50;74.40;;;23.85;86.61;100663.91;4969432;28;20047;-78
2022/07/04 00:11:19;;;;;;;4.30;1.52;;;23.50;74.50;;;23.77;86.96;100664.47;4971537;28;20054;-77
2022/07/04 00:13:46;;;;;;;4.45;1.60;;;23.50;74.70;;;23.72;88.20;100663.09;4986225;28;20038;-78
2022/07/04 00:16:13;;;;;;;3.53;1.33;;;23.50;75.00;;;23.71;86.62;100662.28;4985635;28;20411;-77
2022/07/04 00:18:40;;;;;;;4.22;1.40;;;23.40;74.70;;;23.72;86.28;100663.97;4971398;28;20049;-77
2022/07/04 00:21:07;;;;;;;2.22;1.30;;;23.40;74.90;;;23.79;84.91;100657.16;4984634;28;20049;-77
2022/07/04 00:23:34;;;;;;;3.20;1.42;;;23.40;75.40;;;23.72;84.54;100652.38;4980704;28;20419;-76
2022/07/04 00:26:01;;;;;;;2.80;1.48;;;23.30;74.80;;;23.68;85.16;100646.38;4994169;28;20061;-77
2022/07/04 00:28:28;;;;;;;4.30;1.80;;;23.30;74.90;;;23.68;84.56;100657.13;4983054;28;20050;-77
2022/07/04 00:30:55;;;;;;;4.97;1.38;;;23.30;74.90;;;23.61;84.43;100651.38;4968888;28;20050;-77
2022/07/04 00:33:22;;;;;;;4.18;1.63;;;23.30;74.90;;;23.57;84.26;100659.75;4969958;28;20455;-77
2022/07/04 00:35:49;;;;;;;2.28;1.05;;;23.20;74.70;;;23.46;84.73;100661.41;4968868;28;20042;-77
2022/07/04 00:38:16;;;;;;;2.35;1.42;;;23.20;74.70;;;23.46;84.66;100660.56;4978829;28;20046;-77
2022/07/04 00:40:43;;;;;;;8.15;2.25;;;23.20;74.90;;;23.45;84.94;100659.69;4985172;28;20104;-76
2022/07/04 00:43:10;;;;;;;2.33;1.33;;;23.10;75.10;;;23.45;84.66;100669.59;4972160;28;20046;-76
2022/07/04 00:45:37;;;;;;;2.47;1.35;;;23.10;75.20;;;23.46;83.31;100676.66;4984769;28;20568;-77
2022/07/04 00:48:05;;;;;;;4.28;1.60;;;23.10;75.00;;;23.46;83.09;100677.50;4970773;28;20506;-77
2022/07/04 00:50:32;;;;;;;3.88;1.52;;;23.10;75.10;;;23.38;83.28;100666.50;4983833;28;20149;-77
2022/07/04 00:53:00;;;;;;;3.10;1.40;;;23.10;75.10;;;23.29;83.07;100681.44;4975901;28;20062;-77
2022/07/04 00:55:27;;;;;;;4.05;1.55;;;23.00;74.80;;;23.29;83.43;100681.44;4982331;28;20049;-77
2022/07/04 00:57:54;;;;;;;5.85;1.73;;;23.00;75.10;;;23.29;81.54;100688.63;4986540;28;20521;-77
2022/07/04 01:00:22;;;;;;;4.13;1.70;;;22.90;74.70;;;23.30;81.47;100687.66;4984339;28;20483;-77
2022/07/04 01:02:49;;;;;;;3.85;1.80;;;22.90;74.90;;;23.16;83.71;100683.28;4998836;28;20058;-77
2022/07/04 01:05:16;;;;;;;2.78;1.85;;;22.90;75.30;;;23.13;84.89;100681.66;4977357;28;20058;-77
2022/07/04 01:07:44;;;;;;;5.07;1.88;;;22.80;75.60;;;23.16;84.66;100694.84;4964077;28;20050;-77
2022/07/04 01:10:11;;;;;;;3.35;1.92;;;22.80;75.70;;;23.07;83.97;100701.75;4998481;28;20034;-77
2022/07/04 01:12:38;;;;;;;2.35;1.58;;;22.80;75.60;;;23.02;84.22;100694.97;4955617;28;20051;-77
2022/07/04 01:15:07;;;;;;;2.97;1.90;;;22.70;75.80;;;22.96;84.93;100696.31;4968394;28;20042;-76
2022/07/04 01:17:35;;;;;;;4.07;2.20;;;22.70;75.80;;;22.98;86.75;100699.75;4973546;28;20104;-76
2022/07/04 01:20:04;;;;;;;2.13;1.80;;;22.70;77.00;;;22.93;86.26;100699.19;4954309;28;20050;-77
2022/07/04 01:22:31;;;;;;;4.00;1.92;;;22.60;76.50;;;22.85;88.14;100689.00;4947461;28;20114;-77
2022/07/04 01:24:58;;;;;;;3.08;1.60;;;22.60;77.10;;;22.88;86.85;100691.50;4955185;28;20125;-76
2022/07/04 01:27:25;;;;;;;3.78;1.98;;;22.60;77.20;;;22.67;89.22;100685.81;4968027;28;20077;-77
2022/07/04 01:29:52;;;;;;;2.88;1.52;;;22.50;77.30;;;22.72;88.60;100690.84;4970133;28;20050;-76
2022/07/04 01:32:20;;;;;;;3.67;1.67;;;22.40;77.30;;;22.67;90.09;100697.38;4985096;28;20059;-77
2022/07/04 01:34:47;;;;;;;2.38;1.20;;;22.40;78.10;;;22.70;91.27;100690.97;4983448;28;20039;-77
2022/07/04 01:37:15;;;;;;;2.28;1.27;;;22.40;78.90;;;22.65;90.41;100685.06;4970337;28;20108;-77
2022/07/04 01:39:42;;;;;;;3.47;1.40;;;22.30;78.60;;;22.58;93.59;100695.38;4969683;28;20046;-77
2022/07/04 01:42:09;;;;;;;2.55;1.58;;;22.30;79.70;;;22.45;95.26;100699.81;4985781;28;20042;-77
2022/07/04 01:44:37;;;;;;;2.33;1.10;;;22.20;80.10;;;22.38;95.38;100705.59;4985635;28;20042;-76
2022/07/04 01:47:05;;;;;;;7.43;1.95;;;22.10;80.50;;;22.25;96.49;100699.38;4980277;28;20481;-78
2022/07/04 01:49:32;;;;;;;3.85;1.55;;;22.10;80.90;;;22.16;96.90;100700.84;4981204;28;20560;-77
2022/07/04 01:51:59;;;;;;;5.03;1.58;;;22.00;81.30;;;22.16;96.90;100708.88;4975456;28;20043;-77
2022/07/04 01:54:26;;;;;;;2.83;1.25;;;22.00;81.80;;;22.08;97.65;100708.53;4979534;28;20141;-78
2022/07/04 01:56:53;;;;;;;7.43;1.55;;;21.90;82.30;;;22.03;98.66;100716.88;4970161;28;20056;-75
2022/07/04 02:01:29;;;;;;;2.35;1.23;;;21.90;82.60;;;21.91;97.62;100704.31;4982557;28;20087;-77
2022/07/04 02:02:08;;;;;;;5.63;1.52;;;22.50;82.70;;;21.94;98.05;100709.47;4987253;28;20046;-77
2022/07/04 02:04:37;;;;;;;2.53;1.40;;;21.70;82.90;;;21.92;97.53;100706.03;4981763;28;20105;-77
2022/07/04 02:07:04;;;;;;;4.30;1.48;;;21.60;83.00;;;21.93;98.76;100713.09;4985445;28;20074;-77
2022/07/04 02:09:31;;;;;;;2.92;1.50;;;21.60;83.80;;;21.84;98.58;100717.25;4982248;28;20064;-77
2022/07/04 02:14:44;;;;;;;3.38;1.33;;;21.60;83.70;;;21.75;98.46;100718.72;4983139;28;20049;-77
2022/07/04 02:17:11;;;;;;;2.50;1.30;;;21.50;83.70;;;21.74;98.33;100725.03;4975104;28;20679;-77
2022/07/04 02:19:38;;;;;;;4.15;1.60;;;21.50;84.00;;;21.74;97.25;100725.03;4983707;28;20042;-78
2022/07/04 02:22:05;;;;;;;4.40;1.38;;;21.50;83.90;;;21.85;95.64;100727.00;4968567;28;20050;-77
2022/07/04 02:24:33;;;;;;;2.50;1.25;;;21.40;83.60;;;21.78;96.11;100734.59;4970010;28;20057;-77
2022/07/04 02:27:00;;;;;;;2.30;1.40;;;21.40;83.60;;;21.48;100.00;100740.09;4982574;28;20259;-77
2022/07/04 02:29:27;;;;;;;4.22;1.33;;;21.40;84.60;;;21.56;99.62;100736.91;4981847;28;20055;-77
2022/07/04 02:31:54;;;;;;;3.65;1.50;;;21.30;84.50;;;21.54;99.35;100737.00;4969054;28;20049;-75
2022/07/04 02:34:21;;;;;;;1.65;1.10;;;21.30;84.70;;;21.60;97.28;100736.63;4967018;28;21406;-76
2022/07/04 02:36:48;;;;;;;3.05;1.23;;;21.20;84.50;;;21.48;98.24;100735.59;4969143;28;20050;-76
2022/07/04 02:39:15;;;;;;;3.70;1.55;;;21.20;84.70;;;21.47;97.30;100749.06;4969168;28;20412;-77
2022/07/04 02:41:42;;;;;;;3.42;1.50;;;21.20;84.40;;;21.18;100.00;100733.06;4952163;28;20069;-76
2022/07/04 02:44:09;;;;;;;5.07;1.40;;;21.10;84.90;;;21.23;100.00;100742.50;4966183;28;20064;-76
2022/07/04 02:46:36;;;;;;;2.35;1.27;;;21.00;85.00;;;21.15;100.00;100736.81;4984463;28;20108;-77
2022/07/04 02:49:04;;;;;;;1.75;1.10;;;21.00;85.20;;;20.99;100.00;100744.03;4968704;28;20064;-77
2022/07/04 02:51:31;;;;;;;3.47;1.25;;;20.90;85.60;;;21.18;99.21;100746.44;4970482;28;20027;-77
2022/07/04 02:53:59;;;;;;;3.80;1.70;;;20.90;85.50;;;21.02;100.00;100746.53;4970080;28;20492;-76
2022/07/04 02:56:26;;;;;;;3.80;1.70;;;20.90;85.60;;;21.07;99.83;100745.31;4985522;28;20069;-77
2022/07/04 02:58:53;;;;;;;3.50;1.73;;;20.80;85.50;;;21.09;99.63;100750.53;4987786;28;20042;-77
2022/07/04 03:01:20;;;;;;;5.55;1.40;;;20.80;85.80;;;20.99;99.88;100752.06;4982450;28;20035;-76
2022/07/04 03:03:48;;;;;;;4.05;1.52;;;20.80;85.70;;;21.00;99.54;100743.09;4976010;28;20125;-76
2022/07/04 03:06:15;;;;;;;3.17;1.50;;;21.50;86.20;;;20.91;100.00;100745.38;4993150;28;20772;-76
2022/07/04 03:08:42;;;;;;;2.95;1.52;;;20.70;85.80;;;20.93;98.55;100743.47;4985213;28;20526;-76
2022/07/04 03:11:10;;;;;;;3.58;1.83;;;20.80;85.50;;;20.88;99.53;100750.06;4988928;28;20558;-76
2022/07/04 03:13:39;;;;;;;5.50;1.98;;;20.70;85.60;;;20.90;100.00;100748.13;4981557;28;20145;-77
2022/07/04 03:16:07;;;;;;;3.05;1.63;;;21.50;86.80;;;20.91;99.90;100753.41;4983044;28;20125;-76
2022/07/04 03:18:34;;;;;;;3.72;1.38;;;20.70;86.10;;;20.79;100.00;100752.31;4990052;28;20046;-77
2022/07/04 03:21:01;;;;;;;3.97;1.63;;;20.70;86.60;;;20.65;100.00;100760.31;4970663;28;20077;-77
2022/07/04 03:23:28;;;;;;;3.20;1.55;;;20.60;86.70;;;20.72;100.00;100767.00;4973746;28;20050;-77
2022/07/04 03:25:55;;;;;;;3.60;1.50;;;20.50;86.90;;;20.74;100.00;100766.91;4959282;28;20050;-76
2022/07/04 03:28:22;;;;;;;3.08;1.10;;;20.50;86.90;;;20.53;100.00;100761.91;4989807;28;20042;-76
2022/07/04 03:30:50;;;;;;;2.72;1.25;;;20.50;87.10;;;20.54;100.00;100769.84;4969120;28;20694;-77
2022/07/04 03:33:18;;;;;;;2.83;1.50;;;20.40;87.50;;;20.55;100.00;100774.22;4957641;28;20165;-78
2022/07/04 03:35:45;;;;;;;3.13;1.45;;;20.40;87.60;;;20.55;100.00;100778.72;4991077;28;20053;-78
2022/07/04 03:38:12;;;;;;;6.63;1.80;;;20.30;87.70;;;20.61;100.00;100782.84;4972485;28;20507;-78
2022/07/04 03:40:39;;;;;;;2.33;1.20;;;20.30;87.70;;;20.54;100.00;100779.69;4973455;28;20062;-78
2022/07/04 03:43:06;;;;;;;4.57;1.45;;;20.30;88.40;;;20.63;100.00;100776.44;4974928;28;20503;-77
2022/07/04 03:45:33;;;;;;;2.50;1.23;;;20.40;88.60;;;20.55;100.00;100778.72;4955202;28;20047;-77
2022/07/04 03:48:03;;;;;;;2.42;1.27;;;20.40;88.40;;;20.59;100.00;100774.03;4975961;28;20605;-78
2022/07/04 03:50:30;;;;;;;2.83;1.30;;;20.30;88.40;;;20.50;100.00;100775.44;4957372;28;20051;-77
2022/07/04 03:52:57;;;;;;;3.33;1.27;;;20.60;88.70;;;20.46;100.00;100780.13;4991347;28;20467;-78
2022/07/04 03:55:24;;;;;;;4.70;1.40;;;20.20;89.10;;;20.39;100.00;100784.09;4973307;28;20045;-76
2022/07/04 03:57:51;;;;;;;4.97;1.10;;;20.20;89.40;;;20.44;100.00;100783.84;4981226;28;20043;-77
2022/07/04 04:00:18;;;;;;;1.70;1.23;;;20.20;89.50;;;20.43;100.00;100784.78;4974896;28;20107;-76
2022/07/04 04:02:45;;;;;;;3.95;1.42;;;20.20;89.50;;;20.34;100.00;100786.19;4971314;28;20054;-77
2022/07/04 04:05:26;;;;;;;3.13;1.30;;;20.20;90.00;;;20.27;100.00;100793.69;4990791;28;20035;-77
2022/07/04 04:07:57;;;;;;;3.72;1.75;;;20.10;90.00;;;20.39;100.00;100795.66;4989164;28;20042;-77
2022/07/04 04:10:27;;;;;;;3.70;1.30;;;20.10;90.00;;;20.44;100.00;100805.22;4970676;28;20081;-77
2022/07/04 04:12:54;;;;;;;6.70;1.50;;;20.10;90.20;;;20.34;100.00;100797.72;4985019;28;20039;-77
2022/07/04 04:15:21;;;;;;;2.53;1.30;;;20.10;90.30;;;20.39;100.00;100798.34;4970166;28;20294;-77
2022/07/04 04:17:48;;;;;;;2.17;1.13;;;20.10;90.40;;;20.21;100.00;100802.94;4982871;28;20050;-78
2022/07/04 04:20:15;;;;;;;2.38;1.20;;;20.10;90.40;;;20.23;100.00;100797.50;4985530;28;20039;-76
2022/07/04 04:22:42;;;;;;;5.70;1.35;;;20.10;90.60;;;20.13;100.00;100805.16;4987706;28;20069;-77
2022/07/04 04:25:09;;;;;;;4.30;1.55;;;20.10;90.70;;;20.16;100.00;100810.38;4989428;28;20397;-77
2022/07/04 04:27:37;;;;;;;2.03;1.30;;;20.10;90.70;;;20.12;100.00;100806.13;4983342;28;20049;-78
2022/07/04 04:30:05;;;;;;;4.22;1.60;;;19.90;91.10;;;19.99;100.00;100805.97;4980140;28;21306;-76
2022/07/04 04:32:32;;;;;;;3.38;1.58;;;19.90;91.40;;;20.23;100.00;100808.19;4968215;28;20046;-77
2022/07/04 04:34:59;;;;;;;3.50;1.45;;;19.90;91.30;;;20.31;100.00;100821.97;4992313;28;20349;-78
2022/07/04 04:37:26;;;;;;;2.33;1.27;;;20.00;91.50;;;20.21;100.00;100816.28;4988510;28;20053;-75
2022/07/04 04:39:53;;;;;;;3.22;1.35;;;20.00;91.50;;;20.07;100.00;100825.09;4983089;28;20043;-77
2022/07/04 04:42:20;;;;;;;2.75;1.45;;;20.00;91.60;;;20.19;100.00;100826.22;4987743;28;20054;-77
2022/07/04 04:44:47;;;;;;;8.82;1.50;;;20.00;91.70;;;20.21;100.00;100824.31;4985644;28;20047;-77
2022/07/04 04:47:14;;;;;;;5.18;1.90;;;20.00;91.60;;;20.33;100.00;100827.22;4988101;28;20042;-78
2022/07/04 04:49:41;;;;;;;5.72;1.52;;;20.00;91.40;;;20.36;100.00;100830.56;4980687;28;20038;-78
2022/07/04 04:52:09;;;;;;;3.80;1.58;;;20.10;91.50;;;20.37;100.00;100834.97;4975479;28;20072;-79
2022/07/04 04:54:36;;;;;;;2.28;1.33;;;20.10;91.60;;;20.32;100.00;100837.03;4991635;28;20476;-80
2022/07/04 04:57:03;;;;;;;2.95;1.50;;;20.10;91.40;;;20.33;100.00;100844.09;4981489;28;20046;-79
2022/07/04 04:59:31;;;;;;;4.05;1.70;;;20.10;91.60;;;20.34;100.00;100848.50;4975768;28;20054;-79
2022/07/04 05:01:59;;;;;;;4.18;1.58;;;20.10;91.50;;;20.40;100.00;100847.28;4988394;28;20054;-78
2022/07/04 05:04:26;;;;;;;2.72;1.23;;;20.10;91.70;;;20.47;100.00;100850.47;4971853;28;20038;-79
2022/07/04 05:06:53;;;;;;;3.40;1.45;;;20.10;91.50;;;20.46;100.00;100851.41;4988398;28;20054;-80
2022/07/04 05:09:20;;;;;;;3.72;1.35;;;20.20;91.50;;;20.52;100.00;100846.56;4975194;28;20058;-79
2022/07/04 05:11:48;;;;;;;2.22;1.30;;;20.50;91.60;;;20.51;100.00;100852.00;4973094;28;20043;-79
2022/07/04 05:14:15;;;;;;;4.93;2.10;;;20.30;91.50;;;20.52;100.00;100848.38;4960255;28;20085;-78
2022/07/04 05:16:43;;;;;;;3.38;2.00;;;20.20;91.50;;;20.55;100.00;100854.41;4987708;28;20051;-78
2022/07/04 05:19:10;;;;;;;3.88;1.50;;;20.20;91.50;;;20.61;100.00;100852.34;4960323;28;21335;-78
2022/07/04 05:21:37;;;;;;;3.38;1.88;;;20.20;91.50;;;20.58;100.00;100853.38;4972921;28;20050;-79
2022/07/04 05:24:05;;;;;;;3.10;1.95;;;20.20;91.40;;;20.61;100.00;100860.38;4990391;28;21190;-79
2022/07/04 05:26:32;;;;;;;8.27;2.40;;;20.30;91.60;;;20.63;100.00;100856.63;4972192;28;20050;-78
2022/07/04 05:28:59;;;;;;;4.88;2.40;;;20.30;91.50;;;20.66;100.00;100866.28;4990977;28;20106;-78
2022/07/04 05:31:26;;;;;;;11.25;3.03;;;20.30;91.70;;;20.66;100.00;100867.13;4971518;28;20043;-77
2022/07/04 05:33:54;;;;;;;3.85;2.13;;;20.40;91.70;;;20.65;100.00;100873.44;4979819;28;20058;-78
2022/07/04 05:36:23;;;;;;;5.65;1.98;;;20.40;91.60;;;20.67;100.00;100868.84;4985382;28;20073;-79
2022/07/04 05:38:57;;;;;;;3.65;1.75;;;20.40;91.50;;;20.67;100.00;100868.00;4989127;28;20070;-79
2022/07/04 05:41:24;;;;;;;3.88;2.10;;;20.40;91.40;;;20.73;100.00;100872.16;4976221;28;20157;-78
2022/07/04 05:43:52;;;;;;;4.43;2.45;;;20.50;91.30;;;20.72;100.00;100875.78;4975285;28;20105;-79
2022/07/04 05:46:25;;;;;;;2.75;1.55;;;20.50;91.40;;;20.76;100.00;100874.63;4976898;28;20137;-78
2022/07/04 05:48:52;;;;;;;4.15;1.90;;;20.40;91.40;;;20.74;100.00;100880.06;4976270;28;20046;-77
2022/07/04 05:51:19;;;;;;;4.78;2.28;;;20.50;91.40;;;20.82;100.00;100876.97;4976484;28;20039;-78
2022/07/04 05:53:47;;;;;;;5.55;1.90;;;20.60;91.40;;;20.86;100.00;100875.84;4982088;28;20050;-76
2022/07/04 05:56:14;;;;;;;3.20;2.00;;;20.50;91.50;;;20.90;100.00;100874.72;4971616;28;20117;-78
2022/07/04 05:58:41;;;;;;;4.20;2.05;;;20.60;91.50;;;20.95;100.00;100882.47;4991769;28;20554;-78
2022/07/04 06:01:08;;;;;;;4.80;2.00;;;20.60;91.30;;;20.95;100.00;100877.97;4971175;28;20039;-77
2022/07/04 06:03:39;;;;;;;5.22;2.30;;;20.80;91.60;;;21.02;100.00;100872.25;4972684;28;20046;-78
2022/07/04 06:06:06;;;;;;;5.38;1.95;;;20.60;91.30;;;20.99;100.00;100865.28;4975041;28;20031;-79
2022/07/04 06:08:33;;;;;;;5.63;2.00;;;20.70;91.60;;;21.02;100.00;100862.41;4966533;28;20052;-77
2022/07/04 06:11:00;;;;;;;5.00;2.33;;;20.70;91.50;;;21.02;100.00;100861.56;4986991;28;20031;-77
2022/07/04 06:13:28;;;;;;;6.20;2.55;;;20.80;91.50;;;21.00;100.00;100853.63;4989340;28;20069;-78
2022/07/04 06:15:56;;;;;;;3.97;1.70;;;20.70;91.50;;;21.11;100.00;100864.53;4977633;28;20045;-78
2022/07/04 06:18:23;;;;;;;4.43;1.75;;;20.80;91.50;;;21.07;100.00;100867.47;4987795;28;21524;-77
2022/07/04 06:20:50;;;;;;;4.03;2.17;;;20.80;91.50;;;21.11;100.00;100867.22;4969422;28;20074;-79
2022/07/04 06:23:18;;;;;;;5.07;2.00;;;20.80;91.60;;;21.09;100.00;100873.59;4974216;28;20057;-79
2022/07/04 06:25:45;;;;;;;5.95;1.80;;;20.80;91.60;;;21.16;100.00;100864.25;4988671;28;20069;-79
2022/07/04 06:28:12;;;;;;;3.90;2.30;;;20.80;91.60;;;21.14;100.00;100863.47;4974090;28;20137;-79
2022/07/04 06:30:59;;;;;;;6.00;2.42;;;20.80;91.60;;;21.20;100.00;100863.13;4973103;28;20045;-80
2022/07/04 06:33:26;;;;;;;5.95;2.20;;;20.80;91.50;;;21.27;100.00;100865.41;4982576;28;20034;-79
2022/07/04 06:35:56;;;;;;;7.53;2.30;;;20.90;91.60;;;21.31;100.00;100866.91;4986291;28;20046;-78
2022/07/04 06:38:27;;;;;;;4.13;1.77;;;20.90;91.80;;;21.47;100.00;100869.53;4985753;28;20466;-77
2022/07/04 06:40:58;;;;;;;7.00;2.03;;;21.00;91.70;;;21.45;100.00;100871.44;4983422;28;20035;-77
2022/07/04 06:43:26;;;;;;;4.00;2.17;;;21.10;91.50;;;21.44;100.00;100875.91;4982918;28;20473;-78
2022/07/04 06:45:53;;;;;;;2.42;1.83;;;21.10;91.40;;;21.50;100.00;100867.53;4980812;28;20125;-79
2022/07/04 06:48:21;;;;;;;5.20;2.10;;;21.10;91.50;;;21.56;100.00;100873.44;4976905;28;20081;-78
2022/07/04 06:50:48;;;;;;;4.63;1.95;;;21.20;91.40;;;21.57;100.00;100873.38;4985556;28;20050;-77
2022/07/04 06:53:15;;;;;;;2.85;2.03;;;21.20;91.40;;;21.62;100.00;100862.34;4989931;28;20074;-79
2022/07/04 06:55:42;;;;;;;5.65;2.17;;;21.30;91.40;;;21.68;100.00;100865.53;4971711;28;20042;-79
2022/07/04 06:58:12;;;;;;;5.15;2.40;;;21.30;91.30;;;21.76;100.00;100865.03;4986939;28;20042;-79
2022/07/04 07:00:39;;;;;;;4.13;1.90;;;21.30;91.20;;;21.80;100.00;100861.22;4984415;28;20042;-79
2022/07/04 07:03:06;;;;;;;2.85;1.73;;;21.30;91.30;;;21.84;100.00;100851.16;4987715;28;20054;-78
2022/07/04 07:05:36;;;;;;;2.90;1.63;;;21.40;91.20;;;21.93;100.00;100855.06;4965142;28;20129;-79
2022/07/04 07:08:23;;;;;;;;;;;21.50;91.20;;;21.90;100.00;100856.13;4975638;28;20054;-79
2022/07/04 07:10:51;;;;;;;4.80;1.80;;;21.50;91.00;;;21.93;100.00;100844.34;4982359;28;19959;-79
2022/07/04 07:13:18;;;;;;;2.97;1.52;;;21.50;90.90;;;22.02;100.00;100840.25;4988045;28;20053;-79
2022/07/04 07:15:45;;;;;;;6.07;2.05;;;21.60;91.30;;;22.13;100.00;100848.41;4980661;28;20048;-80
2022/07/04 07:18:12;;;;;;;3.33;1.75;;;21.60;91.00;;;22.04;100.00;100847.19;4970617;28;20042;-78
2022/07/04 07:20:39;;;;;;;3.25;2.17;;;21.70;90.40;;;22.07;100.00;100838.94;4969042;28;20531;-78
2022/07/04 07:23:06;;;;;;;3.17;1.73;;;21.70;90.40;;;22.09;100.00;100839.75;4985528;28;20081;-78
2022/07/04 07:25:34;;;;;;;2.25;1.60;;;21.70;90.30;;;22.13;100.00;100837.69;4984352;28;20581;-78
2022/07/04 07:28:01;;;;;;;4.05;2.17;;;21.70;90.30;;;22.18;100.00;100837.41;4955853;28;20118;-79
2022/07/04 07:30:28;;;;;;;3.47;2.00;;;21.70;90.40;;;22.25;98.68;100833.38;4968567;28;20047;-78
2022/07/04 07:32:55;;;;;;;2.70;1.60;;;21.80;90.10;;;22.23;98.89;100841.50;4971098;28;20075;-79
2022/07/04 07:35:22;;;;;;;4.25;2.00;;;21.90;90.00;;;22.26;99.67;100835.09;4968478;28;20931;-78
2022/07/04 07:37:49;;;;;;;2.53;1.70;;;21.90;90.10;;;22.32;99.39;100837.34;4985949;28;20046;-79
2022/07/04 07:40:16;;;;;;;3.30;1.75;;;21.90;90.10;;;22.38;99.57;100838.78;4985486;28;20042;-78
2022/07/04 07:42:43;;;;;;;5.45;2.10;;;22.00;90.20;;;22.41;99.67;100833.19;4966150;28;20038;-79
2022/07/04 07:45:10;;;;;;;4.85;1.83;;;22.00;90.20;;;22.46;97.55;100830.22;4971280;28;20051;-79
2022/07/04 07:47:37;;;;;;;3.90;1.77;;;22.00;89.80;;;22.44;97.33;100824.94;4989596;28;20757;-77
2022/07/04 07:50:05;;;;;;;2.42;1.73;;;22.00;89.60;;;22.57;97.84;100830.41;4987721;28;20068;-79
2022/07/04 07:52:33;;;;;;;3.58;1.77;;;22.10;90.00;;;22.59;96.13;100825.78;4973516;28;20095;-80
2022/07/04 07:55:00;;;;;;;5.38;2.25;;;22.10;89.50;;;22.64;95.22;100828.16;4989666;28;20121;-80
2022/07/04 07:57:29;;;;;;;4.40;2.30;;;22.20;89.10;;;22.72;95.08;100828.47;4987910;28;20558;-78
2022/07/04 07:59:56;;;;;;;3.10;1.70;;;22.30;89.20;;;22.80;93.01;100827.97;4985547;28;20389;-79
2022/07/04 08:04:34;;;;;;;4.20;1.80;;;22.30;88.80;;;22.80;94.34;100827.97;4987545;28;20370;-79
2022/07/04 08:05:12;;;;;;;6.40;1.60;;;22.30;88.90;;;22.77;93.27;100825.50;4985647;28;20081;-79
2022/07/04 08:07:39;;;;;;;4.25;2.25;;;22.40;88.60;;;22.86;93.42;100819.47;4973299;28;20057;-78
2022/07/04 08:10:08;;;;;;;3.95;2.08;;;22.40;88.70;;;22.92;91.52;100815.50;4978317;28;20154;-79
2022/07/04 08:12:36;;;;;;;3.08;1.77;;;22.40;88.20;;;23.01;90.68;100820.25;4979751;28;20100;-80
2022/07/04 08:15:04;;;;;;;5.10;1.88;;;22.50;88.00;;;23.00;89.67;100820.34;4971285;28;20049;-79
2022/07/04 08:17:34;;;;;;;3.42;1.85;;;22.60;87.70;;;22.99;89.17;100813.25;4970084;28;20050;-80
2022/07/04 08:20:03;;;;;;;4.80;2.33;;;22.60;87.50;;;22.96;85.71;100814.34;4985195;28;20042;-79
2022/07/04 08:22:30;;;;;;;2.53;1.60;;;22.60;86.80;;;22.98;89.72;100811.53;4987265;28;20082;-79
2022/07/04 08:24:58;;;;;;;5.13;2.25;;;22.60;87.30;;;22.99;87.60;100813.25;4984681;28;20046;-79
2022/07/04 08:27:25;;;;;;;3.60;1.83;;;22.60;86.90;;;23.14;87.67;100809.50;4985502;28;20046;-79
2022/07/04 08:30:00;;;;;;;3.72;1.65;;;22.70;87.20;;;23.25;88.02;100799.84;4984522;28;20037;-78
2022/07/04 08:32:28;;;;;;;3.70;1.77;;;22.70;87.40;;;23.26;85.53;100809.63;4988220;28;20042;-80
2022/07/04 08:34:55;;;;;;;4.15;1.90;;;22.80;86.70;;;23.31;85.53;100807.50;4987831;28;20042;-79
2022/07/04 08:37:23;;;;;;;4.32;1.92;;;22.80;86.60;;;23.28;83.50;100819.31;4983202;28;20043;-80
2022/07/04 08:39:50;;;;;;;2.85;1.60;;;22.90;85.90;;;23.30;81.41;100819.19;4970932;28;20047;-79
2022/07/04 08:42:21;;;;;;;4.32;2.33;;;22.90;85.40;;;23.33;81.88;100809.09;4972062;28;20061;-79
2022/07/04 08:44:55;;;;;;;4.32;1.83;;;22.90;85.40;;;23.43;78.81;100811.16;4984955;28;20042;-79
2022/07/04 08:47:24;;;;;;;3.28;1.50;;;23.00;84.90;;;23.43;76.03;100806.63;4971094;28;20408;-79
2022/07/04 08:49:56;;;;;;;2.40;1.57;;;23.00;84.20;;;23.56;77.85;100805.75;4972507;28;20058;-80
2022/07/04 08:52:36;;;;;;;3.72;1.70;;;23.00;84.40;;;23.59;78.87;100805.50;4973074;28;20920;-80
2022/07/04 09:00:40;;;;;;;3.55;1.95;;;23.20;83.10;;;23.55;82.01;100798.66;4992154;28;20039;-79
2022/07/04 09:03:08;;;;;;;2.78;1.40;;;23.20;84.90;;;23.72;79.71;100800.09;4987099;28;20047;-79
2022/07/04 09:05:36;;;;;;;4.53;1.75;;;23.20;84.70;;;23.83;75.47;100796.66;4982356;28;20034;-78
2022/07/04 09:08:04;;;;;;;4.43;2.17;;;23.30;83.60;;;23.79;71.29;100796.84;4986598;28;20486;-80
2022/07/04 09:10:31;;;;;;;3.70;2.03;;;23.40;82.50;;;23.83;72.41;100793.97;4956213;28;20065;-79
2022/07/04 09:13:03;;;;;;;2.85;1.70;;;23.40;82.80;;;23.85;76.69;100792.84;4952600;28;20047;-78
2022/07/04 09:15:41;;;;;;;4.30;1.92;;;23.40;83.60;;;23.92;74.24;100795.94;4984502;28;20050;-78
2022/07/04 09:18:29;;;;;;;4.20;1.90;;;23.40;83.00;;;23.97;74.15;100788.44;4957099;28;20046;-79
2022/07/04 09:21:00;;;;;;;5.85;2.75;;;23.50;82.90;;;24.06;69.97;100797.66;4987384;28;20039;-78
2022/07/04 09:23:33;;;;;;;5.72;1.85;;;23.50;82.00;;;24.12;63.65;100796.31;4972611;28;20137;-79
2022/07/04 09:26:21;;;;;;;4.85;2.20;;;23.60;80.50;;;24.24;66.37;100802.63;4982967;28;20042;-78
2022/07/04 09:28:57;;;;;;;5.45;1.80;;;23.70;81.00;;;24.19;64.07;100797.59;4987183;28;20069;-77
2022/07/04 09:31:30;;;;;;;4.15;1.70;;;23.80;80.00;;;24.03;64.33;100798.75;4972468;28;20093;-77
2022/07/04 09:34:03;;;;;;;3.42;1.60;;;23.80;79.70;;;23.97;63.72;100792.94;4969824;28;20049;-78
2022/07/04 09:36:41;;;;;;;6.50;1.85;;;23.80;79.20;;;24.26;64.96;100798.84;4970929;28;20069;-77
2022/07/04 09:39:20;;;;;;;3.00;1.75;;;23.80;79.90;;;24.33;64.10;100793.84;4970607;28;20089;-77
2022/07/04 09:41:59;;;;;;;;;;;23.80;80.00;;;24.40;62.52;100800.50;4969561;28;20153;-76
2022/07/04 09:44:49;;;;;;;5.63;2.05;;;23.80;79.60;;;24.52;62.83;100795.16;4969613;28;19922;-78
2022/07/04 09:47:27;;;;;;;5.60;2.25;;;23.90;79.40;;;24.56;60.28;100799.34;4988003;28;20046;-78
2022/07/04 09:50:18;;;;;;;3.50;1.60;;;24.00;78.40;;;24.46;56.60;100812.63;4984607;28;20054;-79
2022/07/04 09:52:54;;;;;;;3.03;1.40;;;24.00;77.10;;;24.54;56.93;100803.97;4954923;28;20034;-77
2022/07/04 09:55:33;;;;;;;3.22;2.03;;;24.00;77.10;;;24.70;58.92;100809.88;4985084;28;20064;-77
2022/07/04 09:58:10;;;;;;;6.40;1.63;;;24.10;77.80;;;24.89;58.93;100803.09;4986449;28;20043;-77
2022/07/04 10:00:43;;;;;;;7.30;2.88;;;24.30;77.90;;;24.94;57.52;100808.97;4998437;28;20050;-78
2022/07/04 10:03:32;;;;;;;7.72;1.75;;;24.30;77.50;;;25.03;57.12;100802.00;4989243;28;20066;-76
2022/07/04 10:06:11;;;;;;;3.70;1.52;;;24.40;77.20;;;25.19;55.38;100789.06;4986816;28;20097;-78
2022/07/04 10:08:43;;;;;;;4.45;1.83;;;24.50;76.50;;;25.23;54.72;100789.66;4987866;28;20042;-78
2022/07/04 10:11:11;;;;;;;3.25;1.63;;;24.60;76.20;;;25.37;53.17;100796.66;4967129;28;20059;-78
2022/07/04 10:13:46;;;;;;;4.15;1.52;;;24.70;75.60;;;25.36;53.72;100792.22;4985981;28;20043;-77
2022/07/04 10:16:16;;;;;;;6.05;1.80;;;24.80;75.80;;;25.49;51.46;100794.84;4971383;28;20042;-78
2022/07/04 10:18:44;;;;;;;6.55;2.33;;;24.80;74.70;;;25.49;53.43;100798.38;4971702;28;20066;-77
2022/07/04 10:21:11;;;;;;;5.85;1.67;;;24.90;75.10;;;25.50;53.36;100801.94;4973674;28;20049;-78
2022/07/04 10:23:39;;;;;;;4.50;1.80;;;25.00;75.10;;;25.49;51.25;100801.06;4986883;28;20038;-77
2022/07/04 10:26:06;;;;;;;3.67;1.63;;;25.00;74.00;;;25.57;52.95;100797.75;4987801;28;20046;-78